createdAt,value
2023-02-11T00:01:28.463Z,32.00
2023-02-11T00:03:55.938Z,30.50
2023-02-11T00:06:23.170Z,31.52
2023-02-11T00:08:50.387Z,27.63
2023-02-11T00:11:19.411Z,32.25
2023-02-11T00:13:46.935Z,27.98
2023-02-11T00:16:17.858Z,28.40
2023-02-11T00:18:45.102Z,28.67
2023-02-11T00:21:17.823Z,28.05
2023-02-11T00:23:45.476Z,29.38
2023-02-11T00:26:20.319Z,30.33
2023-02-11T00:28:48.231Z,29.95
2023-02-11T00:31:15.811Z,30.33
2023-02-11T00:33:43.094Z,29.63
2023-02-11T00:36:22.456Z,29.35
2023-02-11T00:38:50.053Z,29.25
2023-02-11T00:41:17.542Z,29.65
2023-02-11T00:43:44.963Z,28.83
2023-02-11T00:46:12.520Z,27.13
2023-02-11T00:48:39.679Z,29.33
2023-02-11T00:51:07.085Z,29.98
2023-02-11T00:53:34.317Z,26.75
2023-02-11T00:56:01.677Z,27.50
2023-02-11T00:58:28.914Z,26.90
2023-02-11T01:00:56.315Z,26.08
2023-02-11T01:03:24.870Z,26.90
2023-02-11T01:05:52.232Z,27.02
2023-02-11T01:08:19.831Z,26.33
2023-02-11T01:10:57.981Z,24.25
2023-02-11T01:13:25.391Z,25.63
2023-02-11T01:15:55.285Z,26.60
2023-02-11T01:18:22.462Z,26.20
2023-02-11T01:20:50.791Z,25.20
2023-02-11T01:23:17.962Z,25.75
2023-02-11T01:25:45.501Z,25.38
2023-02-11T01:28:20.786Z,25.70
2023-02-11T01:30:47.976Z,25.38
2023-02-11T01:33:15.323Z,25.65
2023-02-11T01:35:42.566Z,27.10
2023-02-11T01:38:18.520Z,25.13
2023-02-11T01:41:00.343Z,24.65
2023-02-11T01:43:29.810Z,21.77
2023-02-11T01:46:20.662Z,26.55
2023-02-11T01:48:55.445Z,21.95
2023-02-11T01:51:37.828Z,25.67
2023-02-11T01:54:24.497Z,24.67
2023-02-11T01:57:11.553Z,25.83
2023-02-11T02:00:17.388Z,26.65
2023-02-11T02:03:02.485Z,21.38
2023-02-11T02:05:43.501Z,23.55
2023-02-11T02:08:25.162Z,24.17
2023-02-11T02:10:56.509Z,26.48
2023-02-11T02:13:24.378Z,23.35
2023-02-11T02:16:09.495Z,24.13
2023-02-11T02:19:04.750Z,17.17
2023-02-11T02:22:31.715Z,25.88
2023-02-11T02:25:30.847Z,23.65
2023-02-11T02:28:19.522Z,22.88
2023-02-11T02:31:08.310Z,25.08
2023-02-11T02:33:55.535Z,25.40
2023-02-11T02:36:43.498Z,21.45
2023-02-11T02:39:22.567Z,22.92
2023-02-11T02:41:49.820Z,23.70
2023-02-11T02:44:17.083Z,22.77
2023-02-11T02:46:44.466Z,22.65
2023-02-11T02:49:13.612Z,21.73
2023-02-11T02:52:19.343Z,20.85
2023-02-11T02:55:37.469Z,22.35
2023-02-11T02:58:23.005Z,23.35
2023-02-11T03:01:13.281Z,22.35
2023-02-11T03:04:07.922Z,20.27
2023-02-11T03:06:58.647Z,22.08
2023-02-11T03:09:40.226Z,21.08
2023-02-11T03:12:07.765Z,20.70
2023-02-11T03:14:35.327Z,23.23
2023-02-11T03:17:04.491Z,23.00
2023-02-11T03:19:43.441Z,22.27
2023-02-11T03:22:33.681Z,22.98
2023-02-11T03:25:01.480Z,22.67
2023-02-11T03:27:47.010Z,22.90
2023-02-11T03:30:19.156Z,23.55
2023-02-11T03:33:08.676Z,22.55
2023-02-11T03:35:44.038Z,21.85
2023-02-11T03:38:33.239Z,19.92
2023-02-11T03:41:00.688Z,21.83
2023-02-11T03:43:38.465Z,23.20
2023-02-11T03:46:05.685Z,21.13
2023-02-11T03:48:39.295Z,22.35
2023-02-11T03:51:07.636Z,17.75
2023-02-11T03:53:34.890Z,23.75
2023-02-11T03:56:04.929Z,25.45
2023-02-11T03:58:32.118Z,29.05
2023-02-11T04:00:59.321Z,30.20
2023-02-11T04:03:26.603Z,42.35
2023-02-11T04:05:54.271Z,45.22
2023-02-11T04:08:21.634Z,45.15
2023-02-11T04:10:48.741Z,48.55
2023-02-11T04:13:15.894Z,48.45
2023-02-11T04:15:43.054Z,50.25
2023-02-11T04:18:10.233Z,51.13
2023-02-11T04:20:37.373Z,49.03
2023-02-11T04:23:05.076Z,46.40
2023-02-11T04:25:32.226Z,44.28
2023-02-11T04:27:59.374Z,46.42
2023-02-11T04:30:26.550Z,47.88
2023-02-11T04:32:54.462Z,46.38
2023-02-11T04:35:21.699Z,41.88
2023-02-11T04:37:48.866Z,41.80
2023-02-11T04:40:16.134Z,35.80
2023-02-11T04:42:43.544Z,32.30
2023-02-11T04:45:10.701Z,31.10
2023-02-11T04:47:38.050Z,27.92
2023-02-11T04:50:05.545Z,25.42
2023-02-11T04:52:32.702Z,24.67
2023-02-11T04:54:59.824Z,27.15
2023-02-11T04:57:27.041Z,25.70
2023-02-11T04:59:54.201Z,22.55
2023-02-11T05:02:21.424Z,25.52
2023-02-11T05:04:48.597Z,25.80
2023-02-11T05:07:15.758Z,25.05
2023-02-11T05:09:42.903Z,25.33
2023-02-11T05:12:10.054Z,28.70
2023-02-11T05:14:37.217Z,29.58
2023-02-11T05:17:04.341Z,29.02
2023-02-11T05:19:32.080Z,33.40
2023-02-11T05:22:03.011Z,33.10
2023-02-11T05:24:32.385Z,36.05
2023-02-11T05:27:00.247Z,41.15
2023-02-11T05:29:30.345Z,39.00
2023-02-11T05:31:59.556Z,40.70
2023-02-11T05:34:26.673Z,44.97
2023-02-11T05:36:53.808Z,43.83
2023-02-11T05:39:21.004Z,44.30
2023-02-11T05:41:48.131Z,40.47
2023-02-11T05:44:15.313Z,39.03
2023-02-11T05:46:42.458Z,37.38
2023-02-11T05:49:09.630Z,38.92
2023-02-11T05:51:36.809Z,39.15
2023-02-11T05:54:04.006Z,32.70
2023-02-11T05:56:31.141Z,34.40
2023-02-11T05:58:59.955Z,34.80
2023-02-11T06:01:27.232Z,34.40
2023-02-11T06:03:54.979Z,34.92
2023-02-11T06:06:22.233Z,31.08
2023-02-11T06:08:49.357Z,27.52
2023-02-11T06:11:16.972Z,26.05
2023-02-11T06:13:44.227Z,25.02
2023-02-11T06:16:11.428Z,25.13
2023-02-11T06:18:38.747Z,22.85
2023-02-11T06:21:10.053Z,24.05
2023-02-11T06:23:37.610Z,23.20
2023-02-11T06:26:06.242Z,23.02
2023-02-11T06:28:33.591Z,22.70
2023-02-11T06:31:06.779Z,24.17
2023-02-11T06:33:35.238Z,25.08
2023-02-11T06:36:03.012Z,24.40
2023-02-11T06:38:30.175Z,23.05
2023-02-11T06:40:57.357Z,22.58
2023-02-11T06:43:24.495Z,24.02
2023-02-11T06:45:54.907Z,22.48
2023-02-11T06:48:23.093Z,21.92
2023-02-11T06:50:50.177Z,22.30
2023-02-11T06:53:17.275Z,21.80
2023-02-11T06:55:44.409Z,21.63
2023-02-11T06:58:11.551Z,21.60
2023-02-11T07:00:38.720Z,21.23
2023-02-11T07:03:05.985Z,22.75
2023-02-11T07:05:36.034Z,27.30
2023-02-11T07:08:03.247Z,29.55
2023-02-11T07:10:30.503Z,28.70
2023-02-11T07:12:58.838Z,30.02
2023-02-11T07:15:26.361Z,30.75
2023-02-11T07:17:53.479Z,37.08
2023-02-11T07:20:20.612Z,38.70
2023-02-11T07:22:47.738Z,37.72
2023-02-11T07:25:14.924Z,37.08
2023-02-11T07:27:42.084Z,38.55
2023-02-11T07:30:10.257Z,36.42
2023-02-11T07:32:37.409Z,35.83
2023-02-11T07:35:05.297Z,37.08
2023-02-11T07:37:35.003Z,36.60
2023-02-11T07:40:02.309Z,39.05
2023-02-11T07:42:29.490Z,36.58
2023-02-11T07:44:56.778Z,36.67
2023-02-11T07:47:23.917Z,33.47
2023-02-11T07:49:51.036Z,34.00
2023-02-11T07:52:18.245Z,28.00
2023-02-11T07:54:45.633Z,29.38
2023-02-11T07:57:12.831Z,29.58
2023-02-11T07:59:39.974Z,33.10
2023-02-11T08:02:08.539Z,36.10
2023-02-11T08:04:36.949Z,38.90
2023-02-11T08:07:36.814Z,36.47
2023-02-11T08:10:04.272Z,39.70
2023-02-11T08:12:31.411Z,31.48
2023-02-11T08:14:58.562Z,25.63
2023-02-11T08:17:25.724Z,27.25
2023-02-11T08:19:52.818Z,23.52
2023-02-11T08:22:20.005Z,26.67
2023-02-11T08:24:52.307Z,27.65
2023-02-11T08:27:19.699Z,27.70
2023-02-11T08:29:46.874Z,26.60
2023-02-11T08:32:14.121Z,26.88
2023-02-11T08:34:41.337Z,25.80
2023-02-11T08:37:09.039Z,23.88
2023-02-11T08:39:36.203Z,24.83
2023-02-11T08:42:06.521Z,27.45
2023-02-11T08:44:33.759Z,25.63
2023-02-11T08:47:00.907Z,26.13
2023-02-11T08:49:28.231Z,23.67
2023-02-11T08:52:02.259Z,25.02
2023-02-11T08:54:30.381Z,22.85
2023-02-11T08:57:09.975Z,22.35
2023-02-11T08:59:37.226Z,21.80
2023-02-11T09:02:04.397Z,21.38
2023-02-11T09:04:32.701Z,23.98
2023-02-11T09:07:00.988Z,23.27
2023-02-11T09:09:33.058Z,21.00
2023-02-11T09:12:05.710Z,21.13
2023-02-11T09:14:38.060Z,22.65
2023-02-11T09:17:05.302Z,21.45
2023-02-11T09:19:32.524Z,25.38
2023-02-11T09:21:59.777Z,27.70
2023-02-11T09:24:26.875Z,26.80
2023-02-11T09:26:54.108Z,26.75
2023-02-11T09:29:21.229Z,28.30
2023-02-11T09:31:48.564Z,24.15
2023-02-11T09:34:15.988Z,25.63
2023-02-11T09:36:43.184Z,23.77
2023-02-11T09:39:15.332Z,20.30
2023-02-11T09:42:10.596Z,22.95
2023-02-11T09:44:38.564Z,21.55
2023-02-11T09:47:35.126Z,22.13
2023-02-11T09:50:46.239Z,19.80
2023-02-11T09:53:22.283Z,21.23
2023-02-11T09:55:59.507Z,20.15
2023-02-11T09:58:35.718Z,23.05
2023-02-11T10:01:20.999Z,21.20
2023-02-11T10:04:27.878Z,19.50
2023-02-11T10:06:57.632Z,22.00
2023-02-11T10:09:50.053Z,19.80
2023-02-11T10:13:04.217Z,21.08
2023-02-11T10:16:13.538Z,19.65
2023-02-11T10:19:07.382Z,19.92
2023-02-11T10:22:03.484Z,21.20
2023-02-11T10:24:30.712Z,21.10
2023-02-11T10:26:57.830Z,20.52
2023-02-11T10:29:38.533Z,23.10
2023-02-11T10:32:38.451Z,26.70
2023-02-11T10:35:18.449Z,23.83
2023-02-11T10:37:45.813Z,21.13
2023-02-11T10:40:28.095Z,24.23
2023-02-11T10:42:59.293Z,30.65
2023-02-11T10:45:47.686Z,20.25
2023-02-11T10:48:40.705Z,23.02
2023-02-11T10:51:17.919Z,19.90
2023-02-11T10:53:46.674Z,21.25
2023-02-11T10:56:27.615Z,20.88
2023-02-11T10:59:34.361Z,21.10
2023-02-11T11:02:15.222Z,21.80
2023-02-11T11:04:45.573Z,22.83
2023-02-11T11:07:30.333Z,23.42
2023-02-11T11:10:08.795Z,21.10
2023-02-11T11:12:44.821Z,21.83
2023-02-11T11:15:26.018Z,20.98
2023-02-11T11:18:24.340Z,22.50
2023-02-11T11:21:03.227Z,22.33
2023-02-11T11:23:30.574Z,23.52
2023-02-11T11:26:13.139Z,20.10
2023-02-11T11:28:51.754Z,21.20
2023-02-11T11:31:30.063Z,21.27
2023-02-11T11:33:59.044Z,21.65
2023-02-11T11:36:38.094Z,21.60
2023-02-11T11:39:27.458Z,20.05
2023-02-11T11:41:57.589Z,22.08
2023-02-11T11:44:36.455Z,21.33
2023-02-11T11:47:12.470Z,20.30
2023-02-11T11:50:35.130Z,21.63
2023-02-11T11:53:18.794Z,21.75
2023-02-11T11:56:24.978Z,25.90
2023-02-11T11:58:53.105Z,21.63
2023-02-11T12:01:44.556Z,18.63
2023-02-11T12:04:30.194Z,20.05
2023-02-11T12:07:27.714Z,23.17
2023-02-11T12:10:48.153Z,21.67
2023-02-11T12:13:24.233Z,21.25
2023-02-11T12:16:10.290Z,19.58
2023-02-11T12:19:14.299Z,20.00
2023-02-11T12:22:02.960Z,19.90
2023-02-11T12:24:54.523Z,21.02
2023-02-11T12:27:36.724Z,20.48
2023-02-11T12:30:18.666Z,19.40
2023-02-11T12:33:31.650Z,21.58
2023-02-11T12:36:40.766Z,20.05
2023-02-11T12:39:50.355Z,22.15
2023-02-11T12:43:02.543Z,20.15
2023-02-11T12:45:49.734Z,25.13
2023-02-11T12:48:45.935Z,20.52
2023-02-11T12:52:03.784Z,19.73
2023-02-11T12:54:52.154Z,19.55
2023-02-11T12:57:26.251Z,19.52
2023-02-11T13:00:00.871Z,19.52
2023-02-11T13:03:24.401Z,20.90
2023-02-11T13:05:55.416Z,19.58
2023-02-11T13:08:41.259Z,22.63
2023-02-11T13:11:15.107Z,20.20
2023-02-11T13:13:47.051Z,20.60
2023-02-11T13:16:35.445Z,21.15
2023-02-11T13:19:18.897Z,21.17
2023-02-11T13:22:01.332Z,21.65
2023-02-11T13:24:44.384Z,21.13
2023-02-11T13:27:50.769Z,20.38
2023-02-11T13:30:34.369Z,21.92
2023-02-11T13:33:01.592Z,22.25
2023-02-11T13:35:39.009Z,21.42
2023-02-11T13:38:27.633Z,21.00
2023-02-11T13:41:19.247Z,21.88
2023-02-11T13:43:47.316Z,21.42
2023-02-11T13:46:14.963Z,22.20
2023-02-11T13:48:52.568Z,20.77
2023-02-11T13:51:37.977Z,20.95
2023-02-11T13:54:06.225Z,20.52
2023-02-11T13:56:40.536Z,22.35
2023-02-11T14:02:48.942Z,21.33
2023-02-11T14:05:38.864Z,22.08
2023-02-11T14:08:38.980Z,22.00
2023-02-11T14:11:25.295Z,22.75
2023-02-11T14:13:52.319Z,23.88
2023-02-11T14:16:36.923Z,22.25
2023-02-11T14:19:06.221Z,23.08
2023-02-11T14:21:36.652Z,22.25
2023-02-11T14:24:07.075Z,21.10
2023-02-11T14:26:49.556Z,21.40
2023-02-11T14:29:42.194Z,21.52
2023-02-11T14:32:59.024Z,22.13
2023-02-11T14:35:48.802Z,23.38
2023-02-11T14:38:47.627Z,20.75
2023-02-11T14:41:51.131Z,21.35
2023-02-11T14:44:23.621Z,22.95
2023-02-11T14:46:53.362Z,23.05
2023-02-11T14:49:43.667Z,20.67
2023-02-11T14:52:35.218Z,22.75
2023-02-11T14:55:38.754Z,21.45
2023-02-11T14:58:20.996Z,25.90
2023-02-11T15:01:09.354Z,23.08
2023-02-11T15:03:41.575Z,21.45
2023-02-11T15:06:29.044Z,22.17
2023-02-11T15:09:06.031Z,23.92
2023-02-11T15:11:39.697Z,21.17
2023-02-11T15:15:10.887Z,20.05
2023-02-11T15:17:38.075Z,21.40
2023-02-11T15:20:25.970Z,23.98
2023-02-11T15:23:03.398Z,23.77
2023-02-11T15:25:34.707Z,22.52
2023-02-11T15:28:01.954Z,21.42
2023-02-11T15:33:50.793Z,20.27
2023-02-11T15:36:23.671Z,22.50
2023-02-11T15:39:19.704Z,22.42
2023-02-11T15:41:49.474Z,20.95
2023-02-11T15:44:32.629Z,22.15
2023-02-11T15:47:02.690Z,23.83
2023-02-11T15:53:49.672Z,25.70
2023-02-11T15:56:49.133Z,22.77
2023-02-11T15:59:38.080Z,22.25
2023-02-11T16:02:42.611Z,23.52
2023-02-11T16:05:40.007Z,22.80
2023-02-11T16:08:28.236Z,24.25
2023-02-11T16:11:03.292Z,26.55
2023-02-11T16:13:34.183Z,25.25
2023-02-11T16:16:04.524Z,27.38
2023-02-11T16:18:40.198Z,28.85
2023-02-11T16:21:15.830Z,28.48
2023-02-11T16:23:43.200Z,28.08
2023-02-11T16:26:25.412Z,28.38
2023-02-11T16:28:52.612Z,27.58
2023-02-11T16:31:19.910Z,28.92
2023-02-11T16:33:47.153Z,28.33
2023-02-11T16:36:17.274Z,28.02
2023-02-11T16:38:44.491Z,27.95
2023-02-11T16:41:12.761Z,28.23
2023-02-11T16:43:40.439Z,28.23
2023-02-11T16:46:09.244Z,29.90
2023-02-11T16:48:36.455Z,28.67
2023-02-11T16:51:03.927Z,28.70
2023-02-11T16:53:31.512Z,28.48
2023-02-11T16:56:47.244Z,29.85
2023-02-11T16:59:17.117Z,29.83
2023-02-11T17:02:14.376Z,28.55
2023-02-11T17:08:57.643Z,27.98
2023-02-11T17:11:26.359Z,30.48
2023-02-11T17:14:08.914Z,31.02
2023-02-11T17:16:38.790Z,29.85
2023-02-11T17:19:05.978Z,31.48
2023-02-11T17:21:33.343Z,31.25
2023-02-11T17:24:00.537Z,29.85
2023-02-11T17:30:18.643Z,28.98
2023-02-11T17:32:57.621Z,32.47
2023-02-11T17:35:57.579Z,33.67
2023-02-11T17:38:28.320Z,33.58
2023-02-11T17:41:12.381Z,32.85
2023-02-11T17:43:50.502Z,38.33
2023-02-11T17:49:59.594Z,31.77
2023-02-11T17:52:36.927Z,30.40
2023-02-11T17:55:23.294Z,32.35
2023-02-11T17:58:05.002Z,32.72
2023-02-11T18:00:37.299Z,30.73
2023-02-11T18:03:08.806Z,30.80
2023-02-11T18:05:36.720Z,31.13
2023-02-11T18:08:15.569Z,31.08
2023-02-11T18:11:02.252Z,29.73
2023-02-11T18:13:51.693Z,34.05
2023-02-11T18:16:39.453Z,32.30
2023-02-11T18:19:57.405Z,31.77
2023-02-11T18:23:21.937Z,30.13
2023-02-11T18:30:02.314Z,31.55
2023-02-11T18:32:29.541Z,31.40
2023-02-11T18:36:10.464Z,31.40
2023-02-11T18:42:54.969Z,32.10
2023-02-11T18:47:01.087Z,32.42
2023-02-11T18:49:19.411Z,29.50
2023-02-11T18:51:48.417Z,30.67
2023-02-11T18:54:15.645Z,30.55
2023-02-11T18:56:42.809Z,31.85
2023-02-11T18:59:09.991Z,32.72
2023-02-11T19:01:39.939Z,32.53
2023-02-11T19:04:07.258Z,32.50
2023-02-11T19:06:36.904Z,32.47
2023-02-11T19:09:07.531Z,34.90
2023-02-11T19:11:47.020Z,33.10
2023-02-11T19:14:21.741Z,31.67
2023-02-11T19:16:50.643Z,34.22
2023-02-11T19:19:20.203Z,35.55
2023-02-11T19:21:47.648Z,34.85
2023-02-11T19:24:16.224Z,33.97
2023-02-11T19:26:43.409Z,34.75
2023-02-11T19:29:10.584Z,34.72
2023-02-11T19:31:37.937Z,35.08
2023-02-11T19:34:05.554Z,31.35
2023-02-11T19:36:37.228Z,31.75
2023-02-11T19:39:11.932Z,34.33
2023-02-11T19:41:39.192Z,32.45
2023-02-11T19:44:07.795Z,34.10
2023-02-11T19:46:37.370Z,34.50
2023-02-11T19:49:04.832Z,32.83
2023-02-11T19:51:33.542Z,32.53
2023-02-11T19:54:00.790Z,32.65
2023-02-11T19:56:30.939Z,32.60
2023-02-11T19:58:58.169Z,33.13
2023-02-11T20:01:25.582Z,34.30
2023-02-11T20:03:54.179Z,38.58
2023-02-11T20:06:31.457Z,33.05
2023-02-11T20:09:01.062Z,33.10
2023-02-11T20:11:29.865Z,32.17
2023-02-11T20:13:57.203Z,33.08
2023-02-11T20:16:44.574Z,30.85
2023-02-11T20:19:20.046Z,31.73
2023-02-11T20:21:48.545Z,31.65
2023-02-11T20:24:19.058Z,31.02
2023-02-11T20:26:50.581Z,31.05
2023-02-11T20:29:17.959Z,32.20
2023-02-11T20:31:45.411Z,32.40
2023-02-11T20:34:12.918Z,33.78
2023-02-11T20:36:40.699Z,31.15
2023-02-11T20:39:08.087Z,29.50
2023-02-11T20:41:36.738Z,30.77
2023-02-11T20:44:06.285Z,29.52
2023-02-11T20:46:34.292Z,30.52
2023-02-11T20:49:01.531Z,29.88
2023-02-11T20:51:53.750Z,29.45
2023-02-11T20:54:21.262Z,29.73
2023-02-11T20:56:49.961Z,28.77
2023-02-11T20:59:18.230Z,26.45
2023-02-11T21:01:50.798Z,26.38
2023-02-11T21:04:25.715Z,31.75
2023-02-11T21:06:55.844Z,25.73
2023-02-11T21:09:25.279Z,26.52
2023-02-11T21:11:55.086Z,25.85
2023-02-11T21:14:23.116Z,26.83
2023-02-11T21:16:50.386Z,27.42
2023-02-11T21:19:17.686Z,26.20
2023-02-11T21:21:45.048Z,27.42
2023-02-11T21:24:15.320Z,29.45
2023-02-11T21:26:42.553Z,29.27
2023-02-11T21:29:09.947Z,37.03
2023-02-11T21:31:37.365Z,33.47
2023-02-11T21:34:05.437Z,30.10
2023-02-11T21:36:32.645Z,30.05
2023-02-11T21:39:01.711Z,29.65
2023-02-11T21:41:29.104Z,29.73
2023-02-11T21:43:56.870Z,31.83
2023-02-11T21:46:24.235Z,27.77
2023-02-11T21:48:51.505Z,28.35
2023-02-11T21:51:21.225Z,28.13
2023-02-11T21:53:48.594Z,33.80
2023-02-11T21:56:17.999Z,29.80
2023-02-11T21:58:45.584Z,30.10
2023-02-11T22:01:22.073Z,25.83
2023-02-11T22:03:49.445Z,28.70
2023-02-11T22:06:26.133Z,27.50
2023-02-11T22:08:57.257Z,28.08
2023-02-11T22:11:27.441Z,25.98
2023-02-11T22:14:05.384Z,27.38
2023-02-11T22:16:35.952Z,23.52
2023-02-11T22:19:10.892Z,23.88
2023-02-11T22:22:14.666Z,25.33
2023-02-11T22:24:48.238Z,25.33
2023-02-11T22:27:20.250Z,24.97
2023-02-11T22:29:49.300Z,21.83
2023-02-11T22:32:17.779Z,21.17
2023-02-11T22:34:46.050Z,23.10
2023-02-11T22:37:24.150Z,22.73
2023-02-11T22:39:51.300Z,22.92
2023-02-11T22:42:18.424Z,24.15
2023-02-11T22:44:45.740Z,23.17
2023-02-11T22:47:12.895Z,21.25
2023-02-11T22:49:41.381Z,21.67
2023-02-11T22:52:09.720Z,24.13
2023-02-11T22:54:36.836Z,22.42
2023-02-11T22:57:06.949Z,22.48
2023-02-11T22:59:37.153Z,24.50
2023-02-11T23:02:04.454Z,24.60
2023-02-11T23:04:31.608Z,25.30
2023-02-11T23:06:58.722Z,23.80
2023-02-11T23:09:25.844Z,23.17
2023-02-11T23:11:54.407Z,23.30
2023-02-11T23:14:21.622Z,20.60
2023-02-11T23:16:49.892Z,20.58
2023-02-11T23:19:17.178Z,20.08
2023-02-11T23:21:44.296Z,20.00
2023-02-11T23:24:13.488Z,21.33
2023-02-11T23:26:41.574Z,24.45
2023-02-11T23:29:09.418Z,22.00
2023-02-11T23:31:39.896Z,22.15
2023-02-11T23:34:07.843Z,23.88
2023-02-11T23:36:35.068Z,22.48
2023-02-11T23:39:02.281Z,21.13
2023-02-11T23:41:29.473Z,23.38
2023-02-11T23:43:57.569Z,21.88
2023-02-11T23:46:25.634Z,21.90
2023-02-11T23:48:53.107Z,21.00
2023-02-11T23:51:20.273Z,22.65
2023-02-11T23:53:49.233Z,22.13
2023-02-11T23:56:19.863Z,23.48
2023-02-11T23:58:51.479Z,22.67
